sensor_id;sensor_type;location;lat;lon;timestamp;P1;durP1;ratioP1;P2;durP2;ratioP2
75930;SDS011;64609;47.052;15.462;2023-06-26T00:00:28;12.77;;;10.27;;
75930;SDS011;64609;47.052;15.462;2023-06-26T00:02:54;13.73;;;10.38;;
75930;SDS011;64609;47.052;15.462;2023-06-26T00:05:20;11.68;;;10.45;;
75930;SDS011;64609;47.052;15.462;2023-06-26T00:07:45;12.68;;;10.50;;
75930;SDS011;64609;47.052;15.462;2023-06-26T00:10:11;12.57;;;10.40;;
75930;SDS011;64609;47.052;15.462;2023-06-26T00:12:37;11.80;;;9.73;;
75930;SDS011;64609;47.052;15.462;2023-06-26T00:15:02;13.23;;;10.85;;
75930;SDS011;64609;47.052;15.462;2023-06-26T00:17:28;13.73;;;9.90;;
75930;SDS011;64609;47.052;15.462;2023-06-26T00:19:54;14.05;;;10.10;;
75930;SDS011;64609;47.052;15.462;2023-06-26T00:22:20;14.93;;;11.68;;
75930;SDS011;64609;47.052;15.462;2023-06-26T00:24:46;12.20;;;10.20;;
75930;SDS011;64609;47.052;15.462;2023-06-26T00:27:11;14.63;;;10.68;;
75930;SDS011;64609;47.052;15.462;2023-06-26T00:29:37;13.35;;;10.05;;
75930;SDS011;64609;47.052;15.462;2023-06-26T00:32:03;12.60;;;10.32;;
75930;SDS011;64609;47.052;15.462;2023-06-26T00:34:29;12.65;;;10.40;;
75930;SDS011;64609;47.052;15.462;2023-06-26T00:36:55;14.18;;;10.10;;
75930;SDS011;64609;47.052;15.462;2023-06-26T00:39:21;14.65;;;10.82;;
75930;SDS011;64609;47.052;15.462;2023-06-26T00:41:46;12.68;;;9.95;;
75930;SDS011;64609;47.052;15.462;2023-06-26T00:44:12;14.10;;;10.00;;
75930;SDS011;64609;47.052;15.462;2023-06-26T00:46:38;13.30;;;10.57;;
75930;SDS011;64609;47.052;15.462;2023-06-26T00:49:04;11.95;;;10.15;;
75930;SDS011;64609;47.052;15.462;2023-06-26T00:51:30;12.25;;;10.15;;
75930;SDS011;64609;47.052;15.462;2023-06-26T00:53:56;11.52;;;9.88;;
75930;SDS011;64609;47.052;15.462;2023-06-26T00:56:22;16.20;;;10.48;;
75930;SDS011;64609;47.052;15.462;2023-06-26T00:58:48;14.40;;;10.52;;
75930;SDS011;64609;47.052;15.462;2023-06-26T01:01:14;11.18;;;9.93;;
75930;SDS011;64609;47.052;15.462;2023-06-26T01:03:43;13.32;;;10.75;;
75930;SDS011;64609;47.052;15.462;2023-06-26T01:06:11;12.43;;;10.30;;
75930;SDS011;64609;47.052;15.462;2023-06-26T01:08:39;12.52;;;9.98;;
75930;SDS011;64609;47.052;15.462;2023-06-26T01:11:06;19.42;;;11.05;;
75930;SDS011;64609;47.052;15.462;2023-06-26T01:13:32;12.90;;;10.75;;
75930;SDS011;64609;47.052;15.462;2023-06-26T01:15:59;14.90;;;10.60;;
75930;SDS011;64609;47.052;15.462;2023-06-26T01:18:25;12.73;;;9.90;;
75930;SDS011;64609;47.052;15.462;2023-06-26T01:20:51;14.02;;;10.50;;
75930;SDS011;64609;47.052;15.462;2023-06-26T01:23:38;12.05;;;10.35;;
75930;SDS011;64609;47.052;15.462;2023-06-26T01:26:29;12.43;;;10.48;;
75930;SDS011;64609;47.052;15.462;2023-06-26T01:29:00;12.13;;;9.70;;
75930;SDS011;64609;47.052;15.462;2023-06-26T01:31:27;14.20;;;10.77;;
75930;SDS011;64609;47.052;15.462;2023-06-26T01:33:55;14.13;;;10.63;;
75930;SDS011;64609;47.052;15.462;2023-06-26T01:36:23;14.60;;;10.68;;
75930;SDS011;64609;47.052;15.462;2023-06-26T01:38:50;13.80;;;10.60;;
75930;SDS011;64609;47.052;15.462;2023-06-26T01:41:16;12.85;;;10.60;;
75930;SDS011;64609;47.052;15.462;2023-06-26T01:44:03;13.23;;;10.10;;
75930;SDS011;64609;47.052;15.462;2023-06-26T01:52:28;13.45;;;10.18;;
75930;SDS011;64609;47.052;15.462;2023-06-26T01:57:58;19.40;;;11.20;;
75930;SDS011;64609;47.052;15.462;2023-06-26T02:00:24;14.77;;;10.38;;
75930;SDS011;64609;47.052;15.462;2023-06-26T02:02:51;14.23;;;10.80;;
75930;SDS011;64609;47.052;15.462;2023-06-26T02:05:17;14.05;;;10.15;;
75930;SDS011;64609;47.052;15.462;2023-06-26T02:07:43;17.17;;;10.63;;
75930;SDS011;64609;47.052;15.462;2023-06-26T02:10:09;13.32;;;10.27;;
75930;SDS011;64609;47.052;15.462;2023-06-26T02:12:35;14.63;;;10.73;;
75930;SDS011;64609;47.052;15.462;2023-06-26T02:15:02;12.13;;;10.85;;
75930;SDS011;64609;47.052;15.462;2023-06-26T02:17:28;14.80;;;11.02;;
75930;SDS011;64609;47.052;15.462;2023-06-26T02:19:54;13.35;;;10.25;;
75930;SDS011;64609;47.052;15.462;2023-06-26T02:22:19;14.05;;;10.50;;
75930;SDS011;64609;47.052;15.462;2023-06-26T02:24:45;14.85;;;10.95;;
75930;SDS011;64609;47.052;15.462;2023-06-26T02:27:11;14.82;;;11.15;;
75930;SDS011;64609;47.052;15.462;2023-06-26T02:29:37;13.23;;;11.18;;
75930;SDS011;64609;47.052;15.462;2023-06-26T02:32:03;15.50;;;10.93;;
75930;SDS011;64609;47.052;15.462;2023-06-26T02:34:29;16.10;;;10.65;;
75930;SDS011;64609;47.052;15.462;2023-06-26T02:36:55;12.73;;;11.35;;
75930;SDS011;64609;47.052;15.462;2023-06-26T02:39:21;14.55;;;11.13;;
75930;SDS011;64609;47.052;15.462;2023-06-26T02:41:47;13.00;;;11.20;;
75930;SDS011;64609;47.052;15.462;2023-06-26T02:44:13;15.20;;;11.63;;
75930;SDS011;64609;47.052;15.462;2023-06-26T02:46:39;12.50;;;11.13;;
75930;SDS011;64609;47.052;15.462;2023-06-26T02:49:05;12.98;;;11.38;;
75930;SDS011;64609;47.052;15.462;2023-06-26T02:51:34;14.75;;;11.30;;
75930;SDS011;64609;47.052;15.462;2023-06-26T02:54:00;15.07;;;11.57;;
75930;SDS011;64609;47.052;15.462;2023-06-26T02:56:26;15.38;;;10.80;;
75930;SDS011;64609;47.052;15.462;2023-06-26T02:58:55;18.85;;;12.07;;
75930;SDS011;64609;47.052;15.462;2023-06-26T03:01:21;13.50;;;11.35;;
75930;SDS011;64609;47.052;15.462;2023-06-26T03:03:47;14.77;;;12.07;;
75930;SDS011;64609;47.052;15.462;2023-06-26T03:06:13;15.43;;;11.80;;
75930;SDS011;64609;47.052;15.462;2023-06-26T03:08:39;14.57;;;11.95;;
75930;SDS011;64609;47.052;15.462;2023-06-26T03:11:08;15.85;;;11.93;;
75930;SDS011;64609;47.052;15.462;2023-06-26T03:13:34;16.17;;;11.38;;
75930;SDS011;64609;47.052;15.462;2023-06-26T03:16:01;14.20;;;11.90;;
75930;SDS011;64609;47.052;15.462;2023-06-26T03:18:28;18.80;;;12.80;;
75930;SDS011;64609;47.052;15.462;2023-06-26T03:20:54;12.95;;;11.00;;
75930;SDS011;64609;47.052;15.462;2023-06-26T03:23:21;14.30;;;11.23;;
75930;SDS011;64609;47.052;15.462;2023-06-26T03:25:47;16.90;;;11.57;;
75930;SDS011;64609;47.052;15.462;2023-06-26T03:28:13;16.50;;;11.70;;
75930;SDS011;64609;47.052;15.462;2023-06-26T03:30:39;15.52;;;11.63;;
75930;SDS011;64609;47.052;15.462;2023-06-26T03:33:04;16.70;;;11.50;;
75930;SDS011;64609;47.052;15.462;2023-06-26T03:35:30;16.95;;;11.25;;
75930;SDS011;64609;47.052;15.462;2023-06-26T03:37:56;17.27;;;12.02;;
75930;SDS011;64609;47.052;15.462;2023-06-26T03:40:22;13.32;;;11.65;;
75930;SDS011;64609;47.052;15.462;2023-06-26T03:42:48;15.13;;;11.93;;
75930;SDS011;64609;47.052;15.462;2023-06-26T03:45:13;17.23;;;11.70;;
75930;SDS011;64609;47.052;15.462;2023-06-26T03:47:39;14.38;;;12.00;;
75930;SDS011;64609;47.052;15.462;2023-06-26T03:50:05;13.13;;;10.98;;
75930;SDS011;64609;47.052;15.462;2023-06-26T03:52:31;14.55;;;11.70;;
75930;SDS011;64609;47.052;15.462;2023-06-26T03:54:57;16.33;;;11.82;;
75930;SDS011;64609;47.052;15.462;2023-06-26T03:57:23;14.80;;;11.90;;
75930;SDS011;64609;47.052;15.462;2023-06-26T03:59:49;14.60;;;11.20;;
75930;SDS011;64609;47.052;15.462;2023-06-26T04:02:15;15.75;;;11.95;;
75930;SDS011;64609;47.052;15.462;2023-06-26T04:04:40;14.05;;;11.55;;
75930;SDS011;64609;47.052;15.462;2023-06-26T04:07:06;14.85;;;11.38;;
75930;SDS011;64609;47.052;15.462;2023-06-26T04:09:32;15.32;;;11.43;;
75930;SDS011;64609;47.052;15.462;2023-06-26T04:11:57;14.85;;;11.43;;
75930;SDS011;64609;47.052;15.462;2023-06-26T04:14:23;13.52;;;11.30;;
75930;SDS011;64609;47.052;15.462;2023-06-26T04:16:48;14.30;;;11.20;;
75930;SDS011;64609;47.052;15.462;2023-06-26T04:19:14;16.55;;;11.13;;
75930;SDS011;64609;47.052;15.462;2023-06-26T04:21:40;14.93;;;11.38;;
75930;SDS011;64609;47.052;15.462;2023-06-26T04:24:06;14.88;;;11.20;;
75930;SDS011;64609;47.052;15.462;2023-06-26T04:26:31;14.55;;;10.98;;
75930;SDS011;64609;47.052;15.462;2023-06-26T04:28:57;18.25;;;11.77;;
75930;SDS011;64609;47.052;15.462;2023-06-26T04:31:23;15.57;;;11.10;;
75930;SDS011;64609;47.052;15.462;2023-06-26T04:33:48;18.17;;;11.25;;
75930;SDS011;64609;47.052;15.462;2023-06-26T04:36:15;15.23;;;11.25;;
75930;SDS011;64609;47.052;15.462;2023-06-26T04:38:42;14.98;;;11.40;;
75930;SDS011;64609;47.052;15.462;2023-06-26T04:41:07;14.43;;;10.98;;
75930;SDS011;64609;47.052;15.462;2023-06-26T04:43:33;15.70;;;11.15;;
75930;SDS011;64609;47.052;15.462;2023-06-26T04:45:59;16.05;;;11.02;;
75930;SDS011;64609;47.052;15.462;2023-06-26T04:48:24;19.40;;;11.25;;
75930;SDS011;64609;47.052;15.462;2023-06-26T04:50:52;16.45;;;11.05;;
75930;SDS011;64609;47.052;15.462;2023-06-26T04:53:19;16.75;;;11.25;;
75930;SDS011;64609;47.052;15.462;2023-06-26T04:55:46;15.38;;;11.52;;
75930;SDS011;64609;47.052;15.462;2023-06-26T04:58:12;14.00;;;10.73;;
75930;SDS011;64609;47.052;15.462;2023-06-26T05:00:37;16.13;;;10.70;;
75930;SDS011;64609;47.052;15.462;2023-06-26T05:03:03;15.95;;;10.55;;
75930;SDS011;64609;47.052;15.462;2023-06-26T05:05:29;15.38;;;10.55;;
75930;SDS011;64609;47.052;15.462;2023-06-26T05:07:55;13.20;;;10.68;;
75930;SDS011;64609;47.052;15.462;2023-06-26T05:10:21;14.15;;;10.63;;
75930;SDS011;64609;47.052;15.462;2023-06-26T05:12:47;16.40;;;10.85;;
75930;SDS011;64609;47.052;15.462;2023-06-26T05:15:12;15.48;;;11.38;;
75930;SDS011;64609;47.052;15.462;2023-06-26T05:17:38;17.33;;;10.77;;
75930;SDS011;64609;47.052;15.462;2023-06-26T05:20:04;17.13;;;10.50;;
75930;SDS011;64609;47.052;15.462;2023-06-26T05:22:30;16.08;;;10.38;;
75930;SDS011;64609;47.052;15.462;2023-06-26T05:24:57;17.88;;;10.85;;
75930;SDS011;64609;47.052;15.462;2023-06-26T05:27:25;15.23;;;10.85;;
75930;SDS011;64609;47.052;15.462;2023-06-26T05:29:51;14.55;;;10.32;;
75930;SDS011;64609;47.052;15.462;2023-06-26T05:32:17;17.73;;;10.73;;
75930;SDS011;64609;47.052;15.462;2023-06-26T05:34:47;13.77;;;10.60;;
75930;SDS011;64609;47.052;15.462;2023-06-26T05:37:18;16.63;;;10.38;;
75930;SDS011;64609;47.052;15.462;2023-06-26T05:39:46;13.75;;;10.73;;
75930;SDS011;64609;47.052;15.462;2023-06-26T05:42:12;12.40;;;9.93;;
75930;SDS011;64609;47.052;15.462;2023-06-26T05:44:39;15.40;;;9.77;;
75930;SDS011;64609;47.052;15.462;2023-06-26T05:47:04;13.32;;;10.23;;
75930;SDS011;64609;47.052;15.462;2023-06-26T05:49:30;16.70;;;9.98;;
75930;SDS011;64609;47.052;15.462;2023-06-26T05:51:56;15.65;;;10.35;;
75930;SDS011;64609;47.052;15.462;2023-06-26T05:54:23;14.07;;;10.25;;
75930;SDS011;64609;47.052;15.462;2023-06-26T05:56:49;15.18;;;10.68;;
75930;SDS011;64609;47.052;15.462;2023-06-26T05:59:20;15.00;;;10.32;;
75930;SDS011;64609;47.052;15.462;2023-06-26T06:01:47;14.88;;;9.93;;
75930;SDS011;64609;47.052;15.462;2023-06-26T06:04:13;12.38;;;10.00;;
75930;SDS011;64609;47.052;15.462;2023-06-26T06:06:38;16.58;;;10.20;;
75930;SDS011;64609;47.052;15.462;2023-06-26T06:09:04;15.82;;;10.35;;
75930;SDS011;64609;47.052;15.462;2023-06-26T06:11:29;14.10;;;9.25;;
75930;SDS011;64609;47.052;15.462;2023-06-26T06:13:55;12.60;;;9.70;;
75930;SDS011;64609;47.052;15.462;2023-06-26T06:16:21;15.98;;;9.43;;
75930;SDS011;64609;47.052;15.462;2023-06-26T06:18:46;14.65;;;10.05;;
75930;SDS011;64609;47.052;15.462;2023-06-26T06:21:12;14.43;;;10.30;;
75930;SDS011;64609;47.052;15.462;2023-06-26T06:23:37;11.77;;;9.77;;
75930;SDS011;64609;47.052;15.462;2023-06-26T06:26:03;13.40;;;9.13;;
75930;SDS011;64609;47.052;15.462;2023-06-26T06:28:29;14.23;;;10.18;;
75930;SDS011;64609;47.052;15.462;2023-06-26T06:30:54;16.13;;;9.43;;
75930;SDS011;64609;47.052;15.462;2023-06-26T06:33:20;12.68;;;9.80;;
75930;SDS011;64609;47.052;15.462;2023-06-26T06:35:46;16.08;;;10.00;;
75930;SDS011;64609;47.052;15.462;2023-06-26T06:38:11;13.40;;;9.70;;
75930;SDS011;64609;47.052;15.462;2023-06-26T06:40:37;15.40;;;9.77;;
75930;SDS011;64609;47.052;15.462;2023-06-26T06:43:02;14.82;;;9.65;;
75930;SDS011;64609;47.052;15.462;2023-06-26T06:45:28;18.13;;;10.13;;
75930;SDS011;64609;47.052;15.462;2023-06-26T06:47:54;14.18;;;9.43;;
75930;SDS011;64609;47.052;15.462;2023-06-26T06:50:20;13.93;;;9.18;;
75930;SDS011;64609;47.052;15.462;2023-06-26T06:52:45;13.20;;;9.52;;
75930;SDS011;64609;47.052;15.462;2023-06-26T06:55:11;15.80;;;9.90;;
75930;SDS011;64609;47.052;15.462;2023-06-26T06:57:38;15.00;;;9.32;;
75930;SDS011;64609;47.052;15.462;2023-06-26T07:00:05;12.35;;;8.48;;
75930;SDS011;64609;47.052;15.462;2023-06-26T07:02:36;10.13;;;8.93;;
75930;SDS011;64609;47.052;15.462;2023-06-26T07:05:03;13.77;;;9.13;;
75930;SDS011;64609;47.052;15.462;2023-06-26T07:07:30;12.15;;;9.07;;
75930;SDS011;64609;47.052;15.462;2023-06-26T07:10:17;11.90;;;8.40;;
75930;SDS011;64609;47.052;15.462;2023-06-26T07:12:42;16.08;;;8.90;;
75930;SDS011;64609;47.052;15.462;2023-06-26T07:15:09;11.82;;;9.20;;
75930;SDS011;64609;47.052;15.462;2023-06-26T07:17:34;12.80;;;9.43;;
75930;SDS011;64609;47.052;15.462;2023-06-26T07:20:00;10.55;;;8.70;;
75930;SDS011;64609;47.052;15.462;2023-06-26T07:24:56;12.35;;;9.05;;
75930;SDS011;64609;47.052;15.462;2023-06-26T07:27:21;11.73;;;8.52;;
75930;SDS011;64609;47.052;15.462;2023-06-26T07:29:47;12.15;;;9.15;;
75930;SDS011;64609;47.052;15.462;2023-06-26T07:32:12;15.60;;;9.20;;
75930;SDS011;64609;47.052;15.462;2023-06-26T07:34:39;12.10;;;8.25;;
75930;SDS011;64609;47.052;15.462;2023-06-26T07:37:04;13.10;;;9.10;;
75930;SDS011;64609;47.052;15.462;2023-06-26T07:39:30;12.10;;;8.45;;
75930;SDS011;64609;47.052;15.462;2023-06-26T07:41:56;10.65;;;8.73;;
75930;SDS011;64609;47.052;15.462;2023-06-26T07:44:24;11.75;;;8.48;;
75930;SDS011;64609;47.052;15.462;2023-06-26T07:46:50;9.10;;;8.02;;
75930;SDS011;64609;47.052;15.462;2023-06-26T07:49:15;11.38;;;8.88;;
75930;SDS011;64609;47.052;15.462;2023-06-26T07:51:41;17.02;;;8.55;;
75930;SDS011;64609;47.052;15.462;2023-06-26T07:54:07;14.98;;;7.95;;
75930;SDS011;64609;47.052;15.462;2023-06-26T07:56:51;8.77;;;7.40;;
75930;SDS011;64609;47.052;15.462;2023-06-26T07:59:18;9.48;;;7.60;;
75930;SDS011;64609;47.052;15.462;2023-06-26T08:01:44;14.07;;;7.93;;
75930;SDS011;64609;47.052;15.462;2023-06-26T08:04:09;9.90;;;7.72;;
75930;SDS011;64609;47.052;15.462;2023-06-26T08:06:36;15.00;;;7.75;;
75930;SDS011;64609;47.052;15.462;2023-06-26T08:09:05;13.33;;;7.40;;
75930;SDS011;64609;47.052;15.462;2023-06-26T08:11:33;9.65;;;7.70;;
75930;SDS011;64609;47.052;15.462;2023-06-26T08:13:59;12.40;;;9.23;;
75930;SDS011;64609;47.052;15.462;2023-06-26T08:16:25;10.98;;;7.30;;
75930;SDS011;64609;47.052;15.462;2023-06-26T08:18:50;10.38;;;7.25;;
75930;SDS011;64609;47.052;15.462;2023-06-26T08:21:16;10.90;;;7.65;;
75930;SDS011;64609;47.052;15.462;2023-06-26T08:23:42;11.40;;;8.15;;
75930;SDS011;64609;47.052;15.462;2023-06-26T08:26:07;12.43;;;8.25;;
75930;SDS011;64609;47.052;15.462;2023-06-26T08:28:33;13.80;;;7.97;;
75930;SDS011;64609;47.052;15.462;2023-06-26T08:30:59;12.93;;;8.10;;
75930;SDS011;64609;47.052;15.462;2023-06-26T08:33:25;12.65;;;7.72;;
75930;SDS011;64609;47.052;15.462;2023-06-26T08:35:50;9.65;;;7.50;;
75930;SDS011;64609;47.052;15.462;2023-06-26T08:38:16;10.98;;;7.80;;
75930;SDS011;64609;47.052;15.462;2023-06-26T08:40:42;9.32;;;7.20;;
75930;SDS011;64609;47.052;15.462;2023-06-26T08:43:08;10.20;;;7.45;;
75930;SDS011;64609;47.052;15.462;2023-06-26T08:45:33;11.82;;;8.05;;
75930;SDS011;64609;47.052;15.462;2023-06-26T08:48:00;10.20;;;7.05;;
75930;SDS011;64609;47.052;15.462;2023-06-26T08:50:30;10.63;;;7.20;;
75930;SDS011;64609;47.052;15.462;2023-06-26T08:53:04;10.48;;;6.65;;
75930;SDS011;64609;47.052;15.462;2023-06-26T08:55:43;10.20;;;7.45;;
75930;SDS011;64609;47.052;15.462;2023-06-26T08:58:09;10.30;;;6.80;;
75930;SDS011;64609;47.052;15.462;2023-06-26T09:00:36;9.65;;;6.40;;
75930;SDS011;64609;47.052;15.462;2023-06-26T09:03:02;7.28;;;6.57;;
75930;SDS011;64609;47.052;15.462;2023-06-26T09:05:29;10.73;;;6.47;;
75930;SDS011;64609;47.052;15.462;2023-06-26T09:07:56;8.88;;;6.32;;
75930;SDS011;64609;47.052;15.462;2023-06-26T09:10:23;7.85;;;6.57;;
75930;SDS011;64609;47.052;15.462;2023-06-26T09:12:49;10.98;;;6.13;;
75930;SDS011;64609;47.052;15.462;2023-06-26T09:15:15;9.48;;;6.00;;
75930;SDS011;64609;47.052;15.462;2023-06-26T09:17:44;9.63;;;6.30;;
75930;SDS011;64609;47.052;15.462;2023-06-26T09:20:10;6.75;;;6.05;;
75930;SDS011;64609;47.052;15.462;2023-06-26T09:22:37;8.55;;;5.80;;
75930;SDS011;64609;47.052;15.462;2023-06-26T09:25:06;8.80;;;6.60;;
75930;SDS011;64609;47.052;15.462;2023-06-26T09:27:32;8.10;;;6.60;;
75930;SDS011;64609;47.052;15.462;2023-06-26T09:29:58;9.95;;;5.82;;
75930;SDS011;64609;47.052;15.462;2023-06-26T09:32:24;8.10;;;5.55;;
75930;SDS011;64609;47.052;15.462;2023-06-26T09:34:52;7.22;;;5.97;;
75930;SDS011;64609;47.052;15.462;2023-06-26T09:37:18;8.65;;;6.20;;
75930;SDS011;64609;47.052;15.462;2023-06-26T09:39:43;6.43;;;5.63;;
75930;SDS011;64609;47.052;15.462;2023-06-26T09:42:09;8.30;;;5.90;;
75930;SDS011;64609;47.052;15.462;2023-06-26T09:44:35;9.77;;;5.15;;
75930;SDS011;64609;47.052;15.462;2023-06-26T09:47:01;6.13;;;5.03;;
75930;SDS011;64609;47.052;15.462;2023-06-26T09:49:29;6.55;;;5.35;;
75930;SDS011;64609;47.052;15.462;2023-06-26T09:51:56;10.65;;;5.35;;
75930;SDS011;64609;47.052;15.462;2023-06-26T09:54:21;6.53;;;5.45;;
75930;SDS011;64609;47.052;15.462;2023-06-26T09:56:48;8.25;;;5.63;;
75930;SDS011;64609;47.052;15.462;2023-06-26T09:59:14;8.57;;;5.70;;
75930;SDS011;64609;47.052;15.462;2023-06-26T10:01:41;6.30;;;5.47;;
75930;SDS011;64609;47.052;15.462;2023-06-26T10:04:10;7.63;;;5.85;;
75930;SDS011;64609;47.052;15.462;2023-06-26T10:06:37;6.53;;;5.65;;
75930;SDS011;64609;47.052;15.462;2023-06-26T10:09:09;6.90;;;5.45;;
75930;SDS011;64609;47.052;15.462;2023-06-26T10:11:53;6.05;;;5.38;;
75930;SDS011;64609;47.052;15.462;2023-06-26T10:14:28;5.32;;;4.82;;
75930;SDS011;64609;47.052;15.462;2023-06-26T10:17:01;6.03;;;5.35;;
75930;SDS011;64609;47.052;15.462;2023-06-26T10:19:31;7.43;;;5.78;;
75930;SDS011;64609;47.052;15.462;2023-06-26T10:21:58;9.82;;;5.90;;
75930;SDS011;64609;47.052;15.462;2023-06-26T10:24:26;6.07;;;5.47;;
75930;SDS011;64609;47.052;15.462;2023-06-26T10:26:56;6.65;;;5.30;;
75930;SDS011;64609;47.052;15.462;2023-06-26T10:29:26;7.20;;;5.40;;
75930;SDS011;64609;47.052;15.462;2023-06-26T10:31:54;12.75;;;6.10;;
75930;SDS011;64609;47.052;15.462;2023-06-26T10:34:22;7.13;;;5.55;;
75930;SDS011;64609;47.052;15.462;2023-06-26T10:36:48;8.57;;;5.20;;
75930;SDS011;64609;47.052;15.462;2023-06-26T10:39:26;6.53;;;5.32;;
75930;SDS011;64609;47.052;15.462;2023-06-26T10:42:02;6.63;;;5.20;;
75930;SDS011;64609;47.052;15.462;2023-06-26T10:44:41;5.65;;;4.65;;
75930;SDS011;64609;47.052;15.462;2023-06-26T10:47:11;7.60;;;4.93;;
75930;SDS011;64609;47.052;15.462;2023-06-26T10:49:53;6.43;;;5.32;;
75930;SDS011;64609;47.052;15.462;2023-06-26T10:52:19;6.20;;;5.00;;
75930;SDS011;64609;47.052;15.462;2023-06-26T10:54:44;5.70;;;4.93;;
75930;SDS011;64609;47.052;15.462;2023-06-26T10:57:10;6.28;;;4.88;;
75930;SDS011;64609;47.052;15.462;2023-06-26T10:59:39;8.43;;;4.95;;
75930;SDS011;64609;47.052;15.462;2023-06-26T11:02:05;8.35;;;5.25;;
75930;SDS011;64609;47.052;15.462;2023-06-26T11:07:16;7.00;;;5.38;;
75930;SDS011;64609;47.052;15.462;2023-06-26T11:10:02;6.53;;;5.32;;
75930;SDS011;64609;47.052;15.462;2023-06-26T11:12:37;16.63;;;5.45;;
75930;SDS011;64609;47.052;15.462;2023-06-26T11:15:07;6.07;;;5.35;;
75930;SDS011;64609;47.052;15.462;2023-06-26T11:17:35;6.10;;;5.30;;
75930;SDS011;64609;47.052;15.462;2023-06-26T11:20:02;9.57;;;5.60;;
75930;SDS011;64609;47.052;15.462;2023-06-26T11:22:29;8.38;;;5.32;;
75930;SDS011;64609;47.052;15.462;2023-06-26T11:24:59;6.93;;;5.22;;
75930;SDS011;64609;47.052;15.462;2023-06-26T11:27:26;8.32;;;5.32;;
75930;SDS011;64609;47.052;15.462;2023-06-26T11:29:56;9.05;;;5.03;;
75930;SDS011;64609;47.052;15.462;2023-06-26T11:32:25;7.93;;;5.50;;
75930;SDS011;64609;47.052;15.462;2023-06-26T11:34:53;10.07;;;5.68;;
75930;SDS011;64609;47.052;15.462;2023-06-26T11:37:21;8.80;;;5.35;;
75930;SDS011;64609;47.052;15.462;2023-06-26T11:39:47;8.50;;;5.15;;
75930;SDS011;64609;47.052;15.462;2023-06-26T11:42:13;6.78;;;5.57;;
75930;SDS011;64609;47.052;15.462;2023-06-26T11:44:42;6.40;;;5.00;;
75930;SDS011;64609;47.052;15.462;2023-06-26T11:47:12;6.75;;;5.55;;
75930;SDS011;64609;47.052;15.462;2023-06-26T11:49:45;8.80;;;5.55;;
75930;SDS011;64609;47.052;15.462;2023-06-26T11:52:12;7.80;;;5.70;;
75930;SDS011;64609;47.052;15.462;2023-06-26T11:54:39;6.88;;;5.47;;
75930;SDS011;64609;47.052;15.462;2023-06-26T11:57:06;6.57;;;5.50;;
75930;SDS011;64609;47.052;15.462;2023-06-26T11:59:35;6.75;;;5.53;;
75930;SDS011;64609;47.052;15.462;2023-06-26T12:02:08;6.15;;;5.40;;
75930;SDS011;64609;47.052;15.462;2023-06-26T12:04:36;6.63;;;5.93;;
75930;SDS011;64609;47.052;15.462;2023-06-26T12:07:04;6.60;;;5.65;;
75930;SDS011;64609;47.052;15.462;2023-06-26T12:09:33;5.70;;;5.20;;
75930;SDS011;64609;47.052;15.462;2023-06-26T12:11:59;8.13;;;5.40;;
75930;SDS011;64609;47.052;15.462;2023-06-26T12:14:25;10.27;;;5.60;;
75930;SDS011;64609;47.052;15.462;2023-06-26T12:16:53;8.40;;;5.40;;
75930;SDS011;64609;47.052;15.462;2023-06-26T12:19:28;7.97;;;5.38;;
75930;SDS011;64609;47.052;15.462;2023-06-26T12:21:54;8.73;;;6.00;;
75930;SDS011;64609;47.052;15.462;2023-06-26T12:24:22;8.57;;;5.68;;
75930;SDS011;64609;47.052;15.462;2023-06-26T12:26:52;6.57;;;5.30;;
75930;SDS011;64609;47.052;15.462;2023-06-26T12:29:19;5.68;;;5.18;;
75930;SDS011;64609;47.052;15.462;2023-06-26T12:31:50;5.57;;;5.07;;
75930;SDS011;64609;47.052;15.462;2023-06-26T12:34:18;7.03;;;5.22;;
75930;SDS011;64609;47.052;15.462;2023-06-26T12:36:45;8.93;;;5.60;;
75930;SDS011;64609;47.052;15.462;2023-06-26T12:39:25;7.47;;;5.45;;
75930;SDS011;64609;47.052;15.462;2023-06-26T12:41:53;6.75;;;5.60;;
75930;SDS011;64609;47.052;15.462;2023-06-26T12:44:21;6.00;;;5.40;;
75930;SDS011;64609;47.052;15.462;2023-06-26T12:46:47;10.30;;;5.60;;
75930;SDS011;64609;47.052;15.462;2023-06-26T12:49:14;8.02;;;5.72;;
75930;SDS011;64609;47.052;15.462;2023-06-26T12:51:40;6.50;;;5.13;;
75930;SDS011;64609;47.052;15.462;2023-06-26T12:54:08;8.25;;;5.38;;
75930;SDS011;64609;47.052;15.462;2023-06-26T12:56:34;8.32;;;5.30;;
75930;SDS011;64609;47.052;15.462;2023-06-26T12:59:00;5.80;;;4.70;;
75930;SDS011;64609;47.052;15.462;2023-06-26T13:01:26;8.60;;;5.35;;
75930;SDS011;64609;47.052;15.462;2023-06-26T13:03:53;11.25;;;5.05;;
75930;SDS011;64609;47.052;15.462;2023-06-26T13:06:19;26.85;;;6.32;;
75930;SDS011;64609;47.052;15.462;2023-06-26T13:08:45;9.35;;;5.40;;
75930;SDS011;64609;47.052;15.462;2023-06-26T13:11:10;10.45;;;5.20;;
75930;SDS011;64609;47.052;15.462;2023-06-26T13:13:36;5.93;;;5.18;;
75930;SDS011;64609;47.052;15.462;2023-06-26T13:16:01;8.52;;;5.32;;
75930;SDS011;64609;47.052;15.462;2023-06-26T13:18:27;8.40;;;5.10;;
75930;SDS011;64609;47.052;15.462;2023-06-26T13:20:53;18.48;;;5.45;;
75930;SDS011;64609;47.052;15.462;2023-06-26T13:23:19;8.63;;;5.78;;
75930;SDS011;64609;47.052;15.462;2023-06-26T13:25:45;6.65;;;5.50;;
75930;SDS011;64609;47.052;15.462;2023-06-26T13:28:11;7.47;;;5.03;;
75930;SDS011;64609;47.052;15.462;2023-06-26T13:30:36;7.10;;;5.00;;
75930;SDS011;64609;47.052;15.462;2023-06-26T13:33:02;5.57;;;5.07;;
75930;SDS011;64609;47.052;15.462;2023-06-26T13:35:28;6.60;;;4.63;;
75930;SDS011;64609;47.052;15.462;2023-06-26T13:37:53;8.73;;;5.05;;
75930;SDS011;64609;47.052;15.462;2023-06-26T13:40:19;6.32;;;5.65;;
75930;SDS011;64609;47.052;15.462;2023-06-26T13:42:45;6.03;;;5.10;;
75930;SDS011;64609;47.052;15.462;2023-06-26T13:45:10;7.18;;;5.05;;
75930;SDS011;64609;47.052;15.462;2023-06-26T13:47:36;5.75;;;4.80;;
75930;SDS011;64609;47.052;15.462;2023-06-26T13:50:06;8.85;;;5.22;;
75930;SDS011;64609;47.052;15.462;2023-06-26T13:52:32;7.72;;;5.00;;
75930;SDS011;64609;47.052;15.462;2023-06-26T13:54:58;5.70;;;5.18;;
75930;SDS011;64609;47.052;15.462;2023-06-26T13:57:24;6.82;;;5.65;;
75930;SDS011;64609;47.052;15.462;2023-06-26T13:59:49;10.02;;;5.80;;
75930;SDS011;64609;47.052;15.462;2023-06-26T14:02:15;8.27;;;5.38;;
75930;SDS011;64609;47.052;15.462;2023-06-26T14:04:41;5.85;;;4.95;;
75930;SDS011;64609;47.052;15.462;2023-06-26T14:07:06;7.82;;;5.82;;
75930;SDS011;64609;47.052;15.462;2023-06-26T14:09:32;6.80;;;5.65;;
75930;SDS011;64609;47.052;15.462;2023-06-26T14:11:58;9.38;;;5.32;;
75930;SDS011;64609;47.052;15.462;2023-06-26T14:14:24;6.28;;;4.90;;
75930;SDS011;64609;47.052;15.462;2023-06-26T14:16:49;12.00;;;6.10;;
75930;SDS011;64609;47.052;15.462;2023-06-26T14:19:16;8.93;;;6.05;;
75930;SDS011;64609;47.052;15.462;2023-06-26T14:24:10;9.10;;;4.97;;
75930;SDS011;64609;47.052;15.462;2023-06-26T14:26:36;9.02;;;5.63;;
75930;SDS011;64609;47.052;15.462;2023-06-26T14:29:01;8.13;;;5.53;;
75930;SDS011;64609;47.052;15.462;2023-06-26T14:31:27;6.80;;;5.70;;
75930;SDS011;64609;47.052;15.462;2023-06-26T14:33:53;6.25;;;5.45;;
75930;SDS011;64609;47.052;15.462;2023-06-26T14:36:19;8.15;;;5.55;;